sensor_id;sensor_type;location;lat;lon;timestamp;pressure;altitude;pressure_sealevel;temperature;humidity
56831;BME280;42713;42.676;23.352;2023-04-08T00:00:50;94843.94;;;6.11;56.57
56831;BME280;42713;42.676;23.352;2023-04-08T00:03:16;94848.94;;;6.13;56.46
56831;BME280;42713;42.676;23.352;2023-04-08T00:05:42;94852.16;;;6.08;57.02
56831;BME280;42713;42.676;23.352;2023-04-08T00:08:07;94857.78;;;6.05;57.38
56831;BME280;42713;42.676;23.352;2023-04-08T00:10:33;94855.78;;;6.07;57.35
56831;BME280;42713;42.676;23.352;2023-04-08T00:12:58;94846.16;;;6.07;56.88
56831;BME280;42713;42.676;23.352;2023-04-08T00:15:25;94852.94;;;6.08;57.25
56831;BME280;42713;42.676;23.352;2023-04-08T00:17:51;94853.78;;;6.02;57.11
56831;BME280;42713;42.676;23.352;2023-04-08T00:20:19;94850.41;;;6.02;57.77
56831;BME280;42713;42.676;23.352;2023-04-08T00:22:44;94843.00;;;5.99;57.49
56831;BME280;42713;42.676;23.352;2023-04-08T00:25:10;94849.00;;;5.99;57.23
56831;BME280;42713;42.676;23.352;2023-04-08T00:27:35;94845.81;;;5.97;57.48
56831;BME280;42713;42.676;23.352;2023-04-08T00:30:01;94848.00;;;6.00;56.98
56831;BME280;42713;42.676;23.352;2023-04-08T00:32:27;94846.22;;;6.01;58.25
56831;BME280;42713;42.676;23.352;2023-04-08T00:34:53;94838.59;;;5.99;58.28
56831;BME280;42713;42.676;23.352;2023-04-08T00:37:20;94852.19;;;6.01;58.39
56831;BME280;42713;42.676;23.352;2023-04-08T00:39:47;94850.97;;;6.04;58.37
56831;BME280;42713;42.676;23.352;2023-04-08T00:42:12;94856.19;;;6.04;57.69
56831;BME280;42713;42.676;23.352;2023-04-08T00:44:38;94847.59;;;6.03;57.73
56831;BME280;42713;42.676;23.352;2023-04-08T00:47:03;94858.38;;;6.07;58.07
56831;BME280;42713;42.676;23.352;2023-04-08T00:49:32;94857.41;;;6.01;58.22
56831;BME280;42713;42.676;23.352;2023-04-08T00:51:58;94862.97;;;5.98;58.72
56831;BME280;42713;42.676;23.352;2023-04-08T00:54:24;94853.41;;;5.99;58.66
56831;BME280;42713;42.676;23.352;2023-04-08T00:56:50;94861.19;;;5.99;58.37
56831;BME280;42713;42.676;23.352;2023-04-08T00:59:16;94856.63;;;6.01;58.56
56831;BME280;42713;42.676;23.352;2023-04-08T01:02:08;94863.59;;;6.00;58.76
56831;BME280;42713;42.676;23.352;2023-04-08T01:07:31;94859.63;;;5.91;58.70
56831;BME280;42713;42.676;23.352;2023-04-08T01:10:21;94868.44;;;5.90;58.61
56831;BME280;42713;42.676;23.352;2023-04-08T01:12:58;94866.06;;;5.88;58.95
56831;BME280;42713;42.676;23.352;2023-04-08T01:15:27;94862.63;;;5.88;59.21
56831;BME280;42713;42.676;23.352;2023-04-08T01:17:55;94866.28;;;5.87;59.04
56831;BME280;42713;42.676;23.352;2023-04-08T01:20:23;94867.66;;;5.89;59.14
56831;BME280;42713;42.676;23.352;2023-04-08T01:25:25;94859.44;;;5.92;59.20
56831;BME280;42713;42.676;23.352;2023-04-08T01:27:52;94866.44;;;5.92;59.12
56831;BME280;42713;42.676;23.352;2023-04-08T01:30:22;94871.41;;;5.93;57.91
56831;BME280;42713;42.676;23.352;2023-04-08T01:32:51;94856.41;;;5.96;58.64
56831;BME280;42713;42.676;23.352;2023-04-08T01:35:17;94862.59;;;5.95;58.15
56831;BME280;42713;42.676;23.352;2023-04-08T01:37:44;94867.03;;;5.94;57.80
56831;BME280;42713;42.676;23.352;2023-04-08T01:40:11;94867.03;;;5.94;57.86
56831;BME280;42713;42.676;23.352;2023-04-08T01:42:37;94858.84;;;5.90;58.57
56831;BME280;42713;42.676;23.352;2023-04-08T01:45:03;94867.03;;;5.94;58.64
56831;BME280;42713;42.676;23.352;2023-04-08T01:47:30;94871.41;;;5.93;59.03
56831;BME280;42713;42.676;23.352;2023-04-08T01:49:57;94873.22;;;5.93;59.18
56831;BME280;42713;42.676;23.352;2023-04-08T01:52:25;94867.81;;;5.95;59.35
56831;BME280;42713;42.676;23.352;2023-04-08T01:54:53;94865.22;;;5.95;60.41
56831;BME280;42713;42.676;23.352;2023-04-08T01:57:23;94870.41;;;5.95;60.32
56831;BME280;42713;42.676;23.352;2023-04-08T01:59:51;94872.63;;;5.91;59.96
56831;BME280;42713;42.676;23.352;2023-04-08T02:02:19;94865.66;;;5.91;59.95
56831;BME280;42713;42.676;23.352;2023-04-08T02:04:45;94876.22;;;5.90;59.42
56831;BME280;42713;42.676;23.352;2023-04-08T02:07:11;94881.03;;;5.93;59.51
56831;BME280;42713;42.676;23.352;2023-04-08T02:09:37;94886.03;;;5.88;59.21
56831;BME280;42713;42.676;23.352;2023-04-08T02:12:02;94886.63;;;5.90;59.10
56831;BME280;42713;42.676;23.352;2023-04-08T02:14:28;94889.66;;;5.87;59.19
56831;BME280;42713;42.676;23.352;2023-04-08T02:17:01;94883.44;;;5.88;59.77
56831;BME280;42713;42.676;23.352;2023-04-08T02:19:52;94887.63;;;5.89;59.74
56831;BME280;42713;42.676;23.352;2023-04-08T02:25:03;94898.28;;;5.81;58.95
56831;BME280;42713;42.676;23.352;2023-04-08T02:27:33;94897.50;;;5.80;59.14
56831;BME280;42713;42.676;23.352;2023-04-08T02:29:59;94892.28;;;5.80;58.94
56831;BME280;42713;42.676;23.352;2023-04-08T02:32:27;94886.88;;;5.82;58.81
56831;BME280;42713;42.676;23.352;2023-04-08T02:34:55;94888.69;;;5.81;58.61
56831;BME280;42713;42.676;23.352;2023-04-08T02:37:22;94886.66;;;5.83;58.93
56831;BME280;42713;42.676;23.352;2023-04-08T02:39:47;94888.88;;;5.80;60.03
56831;BME280;42713;42.676;23.352;2023-04-08T02:42:18;94900.09;;;5.80;59.66
56831;BME280;42713;42.676;23.352;2023-04-08T02:44:43;94895.69;;;5.81;59.81
56831;BME280;42713;42.676;23.352;2023-04-08T02:47:09;94891.09;;;5.76;59.47
56831;BME280;42713;42.676;23.352;2023-04-08T02:49:34;94887.72;;;5.75;60.04
56831;BME280;42713;42.676;23.352;2023-04-08T02:51:59;94883.53;;;5.74;59.74
56831;BME280;42713;42.676;23.352;2023-04-08T02:54:25;94888.13;;;5.72;60.02
56831;BME280;42713;42.676;23.352;2023-04-08T02:56:51;94885.53;;;5.72;59.63
56831;BME280;42713;42.676;23.352;2023-04-08T02:59:16;94881.53;;;5.70;59.79
56831;BME280;42713;42.676;23.352;2023-04-08T03:01:41;94882.75;;;5.67;59.87
56831;BME280;42713;42.676;23.352;2023-04-08T03:04:07;94890.75;;;5.66;61.48
56831;BME280;42713;42.676;23.352;2023-04-08T03:06:32;94896.75;;;5.66;60.83
56831;BME280;42713;42.676;23.352;2023-04-08T03:08:58;94891.34;;;5.68;61.30
56831;BME280;42713;42.676;23.352;2023-04-08T03:11:23;94892.34;;;5.67;60.71
56831;BME280;42713;42.676;23.352;2023-04-08T03:13:50;94893.56;;;5.64;60.45
56831;BME280;42713;42.676;23.352;2023-04-08T03:16:15;94889.16;;;5.65;60.19
56831;BME280;42713;42.676;23.352;2023-04-08T03:18:41;94888.38;;;5.64;60.89
56831;BME280;42713;42.676;23.352;2023-04-08T03:21:06;94891.38;;;5.61;61.29
56831;BME280;42713;42.676;23.352;2023-04-08T03:23:31;94878.59;;;5.59;60.79
56831;BME280;42713;42.676;23.352;2023-04-08T03:25:57;94878.59;;;5.59;61.23
56831;BME280;42713;42.676;23.352;2023-04-08T03:28:23;94888.59;;;5.63;60.88
56831;BME280;42713;42.676;23.352;2023-04-08T03:30:48;94885.16;;;5.62;61.00
56831;BME280;42713;42.676;23.352;2023-04-08T03:33:13;94890.97;;;5.64;61.42
56831;BME280;42713;42.676;23.352;2023-04-08T03:35:39;94890.78;;;5.59;61.48
56831;BME280;42713;42.676;23.352;2023-04-08T03:38:05;94896.78;;;5.59;61.27
56831;BME280;42713;42.676;23.352;2023-04-08T03:40:30;94900.38;;;5.58;61.49
56831;BME280;42713;42.676;23.352;2023-04-08T03:42:56;94899.78;;;5.56;60.92
56831;BME280;42713;42.676;23.352;2023-04-08T03:45:21;94894.59;;;5.56;61.76
56831;BME280;42713;42.676;23.352;2023-04-08T03:47:47;94894.97;;;5.60;61.70
56831;BME280;42713;42.676;23.352;2023-04-08T03:50:12;94897.19;;;5.56;62.17
56831;BME280;42713;42.676;23.352;2023-04-08T03:52:38;94895.19;;;5.58;62.38
56831;BME280;42713;42.676;23.352;2023-04-08T03:55:03;94895.00;;;5.53;61.74
56831;BME280;42713;42.676;23.352;2023-04-08T03:57:29;94887.00;;;5.55;62.11
56831;BME280;42713;42.676;23.352;2023-04-08T03:59:55;94891.19;;;5.56;62.05
56831;BME280;42713;42.676;23.352;2023-04-08T04:02:20;94887.78;;;5.55;61.69
56831;BME280;42713;42.676;23.352;2023-04-08T04:04:46;94887.22;;;5.53;62.47
56831;BME280;42713;42.676;23.352;2023-04-08T04:07:11;94891.00;;;5.57;62.59
56831;BME280;42713;42.676;23.352;2023-04-08T04:09:37;94888.16;;;5.59;62.27
56831;BME280;42713;42.676;23.352;2023-04-08T04:12:02;94886.59;;;5.58;62.65
56831;BME280;42713;42.676;23.352;2023-04-08T04:14:28;94888.38;;;5.57;62.64
56831;BME280;42713;42.676;23.352;2023-04-08T04:16:54;94891.59;;;5.59;62.85
56831;BME280;42713;42.676;23.352;2023-04-08T04:19:20;94887.38;;;5.58;62.96
56831;BME280;42713;42.676;23.352;2023-04-08T04:21:45;94901.38;;;5.57;63.12
56831;BME280;42713;42.676;23.352;2023-04-08T04:24:10;94905.78;;;5.57;62.24
56831;BME280;42713;42.676;23.352;2023-04-08T04:26:39;94911.00;;;5.57;62.10
56831;BME280;42713;42.676;23.352;2023-04-08T04:29:05;94908.19;;;5.58;62.55
56831;BME280;42713;42.676;23.352;2023-04-08T04:31:30;94907.78;;;5.55;63.02
56831;BME280;42713;42.676;23.352;2023-04-08T04:33:56;94909.19;;;5.57;62.19
56831;BME280;42713;42.676;23.352;2023-04-08T04:36:22;94907.38;;;5.58;62.82
56831;BME280;42713;42.676;23.352;2023-04-08T04:38:48;94909.38;;;5.56;62.94
56831;BME280;42713;42.676;23.352;2023-04-08T04:41:14;94907.56;;;5.56;62.89
56831;BME280;42713;42.676;23.352;2023-04-08T04:43:39;94909.38;;;5.56;63.34
56831;BME280;42713;42.676;23.352;2023-04-08T04:46:05;94910.38;;;5.55;63.34
56831;BME280;42713;42.676;23.352;2023-04-08T04:48:33;94905.81;;;5.50;63.30
56831;BME280;42713;42.676;23.352;2023-04-08T04:50:59;94903.41;;;5.49;62.93
56831;BME280;42713;42.676;23.352;2023-04-08T04:53:25;94900.00;;;5.48;63.42
56831;BME280;42713;42.676;23.352;2023-04-08T04:55:51;94902.81;;;5.53;63.40
56831;BME280;42713;42.676;23.352;2023-04-08T04:58:17;94911.59;;;5.52;63.41
56831;BME280;42713;42.676;23.352;2023-04-08T05:00:43;94910.00;;;5.51;62.20
56831;BME280;42713;42.676;23.352;2023-04-08T05:03:09;94915.97;;;5.58;62.24
56831;BME280;42713;42.676;23.352;2023-04-08T05:05:34;94917.56;;;5.59;61.88
56831;BME280;42713;42.676;23.352;2023-04-08T05:08:00;94919.94;;;5.61;60.96
56831;BME280;42713;42.676;23.352;2023-04-08T05:10:26;94917.53;;;5.66;60.35
56831;BME280;42713;42.676;23.352;2023-04-08T05:12:51;94915.13;;;5.71;59.33
56831;BME280;42713;42.676;23.352;2023-04-08T05:15:18;94915.50;;;5.75;58.78
56831;BME280;42713;42.676;23.352;2023-04-08T05:17:43;94917.91;;;5.76;59.09
56831;BME280;42713;42.676;23.352;2023-04-08T05:20:10;94914.69;;;5.81;58.97
56831;BME280;42713;42.676;23.352;2023-04-08T05:22:35;94911.66;;;5.84;58.24
56831;BME280;42713;42.676;23.352;2023-04-08T05:25:01;94915.22;;;5.90;58.45
56831;BME280;42713;42.676;23.352;2023-04-08T05:27:26;94913.81;;;5.94;59.23
56831;BME280;42713;42.676;23.352;2023-04-08T05:29:52;94914.00;;;5.99;58.13
56831;BME280;42713;42.676;23.352;2023-04-08T05:32:18;94918.81;;;6.02;58.16
56831;BME280;42713;42.676;23.352;2023-04-08T05:34:43;94919.19;;;6.06;58.52
56831;BME280;42713;42.676;23.352;2023-04-08T05:37:10;94915.16;;;6.10;58.42
56831;BME280;42713;42.676;23.352;2023-04-08T05:39:35;94915.75;;;6.12;58.79
56831;BME280;42713;42.676;23.352;2023-04-08T05:42:01;94916.69;;;6.18;58.58
56831;BME280;42713;42.676;23.352;2023-04-08T05:44:26;94913.47;;;6.22;57.96
56831;BME280;42713;42.676;23.352;2023-04-08T05:46:52;94922.84;;;6.30;57.61
56831;BME280;42713;42.676;23.352;2023-04-08T05:49:18;94916.81;;;6.36;57.77
56831;BME280;42713;42.676;23.352;2023-04-08T05:51:43;94909.16;;;6.42;57.99
56831;BME280;42713;42.676;23.352;2023-04-08T05:54:09;94913.94;;;6.45;57.39
56831;BME280;42713;42.676;23.352;2023-04-08T05:56:35;94914.91;;;6.50;57.26
56831;BME280;42713;42.676;23.352;2023-04-08T05:59:00;94912.69;;;6.54;57.47
56831;BME280;42713;42.676;23.352;2023-04-08T06:01:26;94903.44;;;6.58;57.92
56831;BME280;42713;42.676;23.352;2023-04-08T06:03:51;94907.81;;;6.64;57.70
56831;BME280;42713;42.676;23.352;2023-04-08T06:06:17;94907.16;;;6.69;57.33
56831;BME280;42713;42.676;23.352;2023-04-08T06:08:43;94906.94;;;6.70;56.80
56831;BME280;42713;42.676;23.352;2023-04-08T06:11:08;94908.69;;;6.77;56.63
56831;BME280;42713;42.676;23.352;2023-04-08T06:13:34;94904.66;;;6.81;57.01
56831;BME280;42713;42.676;23.352;2023-04-08T06:18:37;94908.56;;;6.90;56.52
56831;BME280;42713;42.676;23.352;2023-04-08T06:21:02;94906.16;;;6.95;57.52
56831;BME280;42713;42.676;23.352;2023-04-08T06:23:28;94910.47;;;7.01;57.64
56831;BME280;42713;42.676;23.352;2023-04-08T06:25:53;94906.66;;;7.04;57.70
56831;BME280;42713;42.676;23.352;2023-04-08T06:28:19;94904.75;;;7.11;57.98
56831;BME280;42713;42.676;23.352;2023-04-08T06:30:44;94906.72;;;7.16;57.75
56831;BME280;42713;42.676;23.352;2023-04-08T06:33:10;94907.69;;;7.22;57.55
56831;BME280;42713;42.676;23.352;2023-04-08T06:35:35;94912.59;;;7.30;57.22
56831;BME280;42713;42.676;23.352;2023-04-08T06:38:02;94911.16;;;7.34;57.71
56831;BME280;42713;42.676;23.352;2023-04-08T06:40:28;94914.34;;;7.36;57.18
56831;BME280;42713;42.676;23.352;2023-04-08T06:42:54;94910.88;;;7.42;57.31
56831;BME280;42713;42.676;23.352;2023-04-08T06:45:20;94922.66;;;7.45;58.01
56831;BME280;42713;42.676;23.352;2023-04-08T06:47:47;94913.06;;;7.45;57.90
56831;BME280;42713;42.676;23.352;2023-04-08T06:50:12;94916.38;;;7.53;57.86
56831;BME280;42713;42.676;23.352;2023-04-08T06:52:38;94920.16;;;7.57;57.66
56831;BME280;42713;42.676;23.352;2023-04-08T06:55:04;94921.75;;;7.58;57.86
56831;BME280;42713;42.676;23.352;2023-04-08T06:57:30;94916.31;;;7.59;57.86
56831;BME280;42713;42.676;23.352;2023-04-08T06:59:55;94916.06;;;7.61;57.79
56831;BME280;42713;42.676;23.352;2023-04-08T07:02:21;94917.25;;;7.65;58.58
56831;BME280;42713;42.676;23.352;2023-04-08T07:04:47;94921.22;;;7.68;58.24
56831;BME280;42713;42.676;23.352;2023-04-08T07:07:13;94923.81;;;7.68;58.17
56831;BME280;42713;42.676;23.352;2023-04-08T07:09:38;94921.38;;;7.73;57.80
56831;BME280;42713;42.676;23.352;2023-04-08T07:12:07;94915.69;;;7.76;57.95
56831;BME280;42713;42.676;23.352;2023-04-08T07:14:33;94913.25;;;7.81;58.09
56831;BME280;42713;42.676;23.352;2023-04-08T07:16:58;94913.59;;;7.85;58.46
56831;BME280;42713;42.676;23.352;2023-04-08T07:19:24;94919.41;;;7.87;57.98
56831;BME280;42713;42.676;23.352;2023-04-08T07:21:49;94928.94;;;7.93;57.88
56831;BME280;42713;42.676;23.352;2023-04-08T07:24:16;94929.09;;;7.98;57.58
56831;BME280;42713;42.676;23.352;2023-04-08T07:26:42;94932.25;;;8.00;57.58
56831;BME280;42713;42.676;23.352;2023-04-08T07:29:08;94928.78;;;8.06;57.94
56831;BME280;42713;42.676;23.352;2023-04-08T07:31:33;94932.31;;;8.12;57.70
56831;BME280;42713;42.676;23.352;2023-04-08T07:33:59;94934.63;;;8.20;58.21
56831;BME280;42713;42.676;23.352;2023-04-08T07:36:24;94931.34;;;8.25;57.47
56831;BME280;42713;42.676;23.352;2023-04-08T07:38:50;94937.03;;;8.34;57.56
56831;BME280;42713;42.676;23.352;2023-04-08T07:41:16;94939.56;;;8.40;56.95
56831;BME280;42713;42.676;23.352;2023-04-08T07:43:41;94934.69;;;8.44;56.88
56831;BME280;42713;42.676;23.352;2023-04-08T07:46:07;94940.84;;;8.50;57.13
56831;BME280;42713;42.676;23.352;2023-04-08T07:48:33;94942.13;;;8.59;56.83
56831;BME280;42713;42.676;23.352;2023-04-08T07:51:08;94943.84;;;8.65;56.77
56831;BME280;42713;42.676;23.352;2023-04-08T07:53:34;94935.13;;;8.71;56.62
56831;BME280;42713;42.676;23.352;2023-04-08T07:56:00;94939.44;;;8.78;56.22
56831;BME280;42713;42.676;23.352;2023-04-08T07:58:28;94946.97;;;8.86;56.36
56831;BME280;42713;42.676;23.352;2023-04-08T08:00:54;94951.38;;;8.97;56.50
56831;BME280;42713;42.676;23.352;2023-04-08T08:03:19;94950.50;;;9.03;56.42
56831;BME280;42713;42.676;23.352;2023-04-08T08:05:44;94960.25;;;9.08;56.15
56831;BME280;42713;42.676;23.352;2023-04-08T08:08:10;94960.16;;;9.15;56.03
56831;BME280;42713;42.676;23.352;2023-04-08T08:10:39;94954.00;;;9.21;55.79
56831;BME280;42713;42.676;23.352;2023-04-08T08:13:05;94962.53;;;9.28;55.83
56831;BME280;42713;42.676;23.352;2023-04-08T08:15:31;94961.63;;;9.34;55.26
56831;BME280;42713;42.676;23.352;2023-04-08T08:17:57;94959.13;;;9.40;54.56
56831;BME280;42713;42.676;23.352;2023-04-08T08:20:22;94966.84;;;9.46;55.07
56831;BME280;42713;42.676;23.352;2023-04-08T08:22:48;94958.31;;;9.51;54.90
56831;BME280;42713;42.676;23.352;2023-04-08T08:25:14;94952.06;;;9.52;54.65
56831;BME280;42713;42.676;23.352;2023-04-08T08:27:39;94961.25;;;9.55;54.68
56831;BME280;42713;42.676;23.352;2023-04-08T08:30:07;94954.78;;;9.57;54.34
56831;BME280;42713;42.676;23.352;2023-04-08T08:32:32;94959.44;;;9.55;54.21
56831;BME280;42713;42.676;23.352;2023-04-08T08:34:58;94971.03;;;9.59;54.49
56831;BME280;42713;42.676;23.352;2023-04-08T08:37:23;94964.09;;;9.65;54.51
56831;BME280;42713;42.676;23.352;2023-04-08T08:39:49;94955.78;;;9.68;54.07
56831;BME280;42713;42.676;23.352;2023-04-08T08:44:44;94961.69;;;9.75;54.23
56831;BME280;42713;42.676;23.352;2023-04-08T08:47:10;94953.25;;;9.85;54.10
56831;BME280;42713;42.676;23.352;2023-04-08T08:49:36;94963.25;;;9.88;53.75
56831;BME280;42713;42.676;23.352;2023-04-08T08:52:01;94958.69;;;9.95;53.75
56831;BME280;42713;42.676;23.352;2023-04-08T08:54:27;94957.56;;;9.91;53.82
56831;BME280;42713;42.676;23.352;2023-04-08T08:56:53;94958.91;;;9.94;53.81
56831;BME280;42713;42.676;23.352;2023-04-08T08:59:18;94961.53;;;9.94;53.45
56831;BME280;42713;42.676;23.352;2023-04-08T09:01:44;94963.91;;;9.95;53.60
56831;BME280;42713;42.676;23.352;2023-04-08T09:06:38;94961.84;;;9.97;53.82
56831;BME280;42713;42.676;23.352;2023-04-08T09:09:04;94964.59;;;10.03;53.14
56831;BME280;42713;42.676;23.352;2023-04-08T09:11:43;94971.81;;;10.12;53.02
56831;BME280;42713;42.676;23.352;2023-04-08T09:14:22;94970.69;;;10.20;53.09
56831;BME280;42713;42.676;23.352;2023-04-08T09:16:49;94968.63;;;10.22;52.71
56831;BME280;42713;42.676;23.352;2023-04-08T09:19:15;94969.84;;;10.32;52.18
56831;BME280;42713;42.676;23.352;2023-04-08T09:21:41;94974.25;;;10.43;52.05
56831;BME280;42713;42.676;23.352;2023-04-08T09:24:08;94960.13;;;10.44;52.10
56831;BME280;42713;42.676;23.352;2023-04-08T09:26:34;94961.88;;;10.55;52.12
56831;BME280;42713;42.676;23.352;2023-04-08T09:29:08;94953.44;;;10.65;51.87
56831;BME280;42713;42.676;23.352;2023-04-08T09:31:36;94955.03;;;10.66;51.32
56831;BME280;42713;42.676;23.352;2023-04-08T09:34:13;94945.16;;;10.73;51.79
56831;BME280;42713;42.676;23.352;2023-04-08T09:36:40;94950.72;;;10.77;50.76
56831;BME280;42713;42.676;23.352;2023-04-08T09:39:06;94948.66;;;10.79;50.88
56831;BME280;42713;42.676;23.352;2023-04-08T09:41:33;94946.84;;;10.80;50.95
56831;BME280;42713;42.676;23.352;2023-04-08T09:44:02;94943.50;;;10.84;50.90
56831;BME280;42713;42.676;23.352;2023-04-08T09:46:42;94950.81;;;10.82;50.28
56831;BME280;42713;42.676;23.352;2023-04-08T09:49:13;94944.31;;;10.85;51.19
56831;BME280;42713;42.676;23.352;2023-04-08T09:51:53;94934.72;;;10.90;51.57
56831;BME280;42713;42.676;23.352;2023-04-08T09:54:31;94932.88;;;10.91;50.75
56831;BME280;42713;42.676;23.352;2023-04-08T09:57:04;94936.84;;;10.94;50.72
56831;BME280;42713;42.676;23.352;2023-04-08T09:59:35;94934.22;;;10.94;50.87
56831;BME280;42713;42.676;23.352;2023-04-08T10:02:06;94926.66;;;10.97;50.21
56831;BME280;42713;42.676;23.352;2023-04-08T10:04:34;94924.03;;;10.97;50.26
56831;BME280;42713;42.676;23.352;2023-04-08T10:07:05;94928.09;;;11.05;50.57
56831;BME280;42713;42.676;23.352;2023-04-08T10:09:31;94925.00;;;11.08;50.07
56831;BME280;42713;42.676;23.352;2023-04-08T10:11:57;94921.50;;;11.19;49.37
56831;BME280;42713;42.676;23.352;2023-04-08T10:14:23;94918.22;;;11.29;49.39
56831;BME280;42713;42.676;23.352;2023-04-08T10:17:25;94915.16;;;11.37;48.71
56831;BME280;42713;42.676;23.352;2023-04-08T10:19:59;94908.16;;;11.43;49.70
56831;BME280;42713;42.676;23.352;2023-04-08T10:27:42;94909.09;;;11.54;47.85
56831;BME280;42713;42.676;23.352;2023-04-08T10:32:58;94910.56;;;11.67;48.32
56831;BME280;42713;42.676;23.352;2023-04-08T10:35:32;94910.09;;;11.70;48.06
56831;BME280;42713;42.676;23.352;2023-04-08T10:37:59;94904.38;;;11.56;48.65
56831;BME280;42713;42.676;23.352;2023-04-08T10:40:25;94895.09;;;11.65;47.17
56831;BME280;42713;42.676;23.352;2023-04-08T10:42:57;94909.75;;;11.66;47.36
56831;BME280;42713;42.676;23.352;2023-04-08T10:45:23;94901.91;;;11.66;47.56
56831;BME280;42713;42.676;23.352;2023-04-08T10:47:49;94895.09;;;11.65;48.10
56831;BME280;42713;42.676;23.352;2023-04-08T10:50:16;94891.72;;;11.70;48.14
56831;BME280;42713;42.676;23.352;2023-04-08T10:52:53;94892.81;;;11.74;47.70
56831;BME280;42713;42.676;23.352;2023-04-08T10:55:22;94892.06;;;11.79;47.49
56831;BME280;42713;42.676;23.352;2023-04-08T10:57:49;94883.28;;;11.90;47.77
56831;BME280;42713;42.676;23.352;2023-04-08T11:00:31;94879.22;;;11.99;47.62
56831;BME280;42713;42.676;23.352;2023-04-08T11:03:02;94884.81;;;12.08;46.21
56831;BME280;42713;42.676;23.352;2023-04-08T11:05:27;94881.44;;;12.13;47.07
56831;BME280;42713;42.676;23.352;2023-04-08T11:07:53;94875.47;;;12.18;45.97
56831;BME280;42713;42.676;23.352;2023-04-08T11:10:19;94874.09;;;12.15;45.65
56831;BME280;42713;42.676;23.352;2023-04-08T11:12:44;94867.81;;;12.16;45.29
56831;BME280;42713;42.676;23.352;2023-04-08T11:15:12;94873.28;;;12.09;46.20
56831;BME280;42713;42.676;23.352;2023-04-08T11:17:38;94870.41;;;12.11;46.88
56831;BME280;42713;42.676;23.352;2023-04-08T11:20:04;94868.09;;;12.20;45.48
56831;BME280;42713;42.676;23.352;2023-04-08T11:22:31;94864.00;;;12.29;45.29
56831;BME280;42713;42.676;23.352;2023-04-08T11:24:59;94867.25;;;12.41;45.15
56831;BME280;42713;42.676;23.352;2023-04-08T11:27:25;94851.34;;;12.53;44.39
56831;BME280;42713;42.676;23.352;2023-04-08T11:29:54;94853.72;;;12.55;43.91
56831;BME280;42713;42.676;23.352;2023-04-08T11:32:24;94851.16;;;12.65;43.63
56831;BME280;42713;42.676;23.352;2023-04-08T11:34:49;94848.03;;;12.68;43.57
56831;BME280;42713;42.676;23.352;2023-04-08T11:37:15;94846.53;;;12.77;43.50
56831;BME280;42713;42.676;23.352;2023-04-08T11:39:42;94845.06;;;12.97;43.08
56831;BME280;42713;42.676;23.352;2023-04-08T11:42:07;94845.44;;;13.16;42.55
56831;BME280;42713;42.676;23.352;2023-04-08T11:44:33;94843.34;;;13.23;42.01
56831;BME280;42713;42.676;23.352;2023-04-08T11:46:59;94842.63;;;13.38;41.70
56831;BME280;42713;42.676;23.352;2023-04-08T11:49:26;94831.97;;;13.61;41.61
56831;BME280;42713;42.676;23.352;2023-04-08T11:51:56;94825.97;;;13.81;40.95
56831;BME280;42713;42.676;23.352;2023-04-08T11:54:30;94824.94;;;13.92;40.01
56831;BME280;42713;42.676;23.352;2023-04-08T11:56:57;94827.34;;;13.99;39.56
56831;BME280;42713;42.676;23.352;2023-04-08T11:59:24;94818.13;;;14.07;38.54
56831;BME280;42713;42.676;23.352;2023-04-08T12:01:51;94816.28;;;14.12;38.71
56831;BME280;42713;42.676;23.352;2023-04-08T12:04:16;94818.13;;;14.27;39.14
56831;BME280;42713;42.676;23.352;2023-04-08T12:06:42;94816.31;;;14.33;39.32
56831;BME280;42713;42.676;23.352;2023-04-08T12:09:12;94802.34;;;14.48;39.47
56831;BME280;42713;42.676;23.352;2023-04-08T12:11:37;94806.56;;;14.54;39.72
56831;BME280;42713;42.676;23.352;2023-04-08T12:14:03;94799.69;;;14.58;38.75
56831;BME280;42713;42.676;23.352;2023-04-08T12:16:28;94800.25;;;14.71;39.25
56831;BME280;42713;42.676;23.352;2023-04-08T12:18:54;94801.53;;;14.84;38.36
56831;BME280;42713;42.676;23.352;2023-04-08T12:21:20;94807.31;;;14.91;37.94
56831;BME280;42713;42.676;23.352;2023-04-08T12:23:45;94797.78;;;15.05;37.98
56831;BME280;42713;42.676;23.352;2023-04-08T12:26:11;94800.72;;;14.99;37.68
56831;BME280;42713;42.676;23.352;2023-04-08T12:28:37;94800.69;;;15.04;37.80
56831;BME280;42713;42.676;23.352;2023-04-08T12:31:03;94789.06;;;15.05;37.84
56831;BME280;42713;42.676;23.352;2023-04-08T12:33:29;94793.88;;;14.87;37.73
56831;BME280;42713;42.676;23.352;2023-04-08T12:35:55;94793.13;;;14.76;37.54
56831;BME280;42713;42.676;23.352;2023-04-08T12:38:22;94792.59;;;14.38;38.47
56831;BME280;42713;42.676;23.352;2023-04-08T12:40:48;94773.34;;;14.27;39.05
56831;BME280;42713;42.676;23.352;2023-04-08T12:43:13;94781.78;;;14.09;39.35
56831;BME280;42713;42.676;23.352;2023-04-08T12:45:39;94782.03;;;14.02;39.57
56831;BME280;42713;42.676;23.352;2023-04-08T12:48:04;94784.94;;;13.95;39.45
56831;BME280;42713;42.676;23.352;2023-04-08T12:50:30;94783.59;;;13.77;40.04
56831;BME280;42713;42.676;23.352;2023-04-08T12:52:55;94788.81;;;13.67;40.88
56831;BME280;42713;42.676;23.352;2023-04-08T12:55:23;94789.06;;;13.55;41.28
56831;BME280;42713;42.676;23.352;2023-04-08T12:57:50;94793.19;;;13.35;42.06
56831;BME280;42713;42.676;23.352;2023-04-08T13:00:16;94794.47;;;13.28;42.21
56831;BME280;42713;42.676;23.352;2023-04-08T13:02:42;94793.13;;;13.25;42.42
56831;BME280;42713;42.676;23.352;2023-04-08T13:05:09;94796.00;;;13.23;42.65
56831;BME280;42713;42.676;23.352;2023-04-08T13:07:35;94798.41;;;13.25;42.99
56831;BME280;42713;42.676;23.352;2023-04-08T13:10:00;94789.47;;;13.26;42.45
56831;BME280;42713;42.676;23.352;2023-04-08T13:12:27;94788.94;;;13.24;43.09
56831;BME280;42713;42.676;23.352;2023-04-08T13:14:53;94793.91;;;13.26;43.25
56831;BME280;42713;42.676;23.352;2023-04-08T13:17:19;94800.75;;;13.27;42.96
56831;BME280;42713;42.676;23.352;2023-04-08T13:19:45;94801.03;;;13.30;42.88